sensor_id;sensor_type;location;lat;lon;timestamp;pressure;altitude;pressure_sealevel;temperature;humidity
55914;BME280;58179;48.776;9.124;2023-07-13T00:00:42;97318.97;;;20.27;100.00
55914;BME280;58179;48.776;9.124;2023-07-13T00:03:08;97317.72;;;20.25;100.00
55914;BME280;58179;48.776;9.124;2023-07-13T00:05:34;97310.91;;;20.19;100.00
55914;BME280;58179;48.776;9.124;2023-07-13T00:08:01;97317.69;;;20.16;100.00
55914;BME280;58179;48.776;9.124;2023-07-13T00:10:27;97312.81;;;20.18;100.00
55914;BME280;58179;48.776;9.124;2023-07-13T00:12:53;97308.69;;;20.12;100.00
55914;BME280;58179;48.776;9.124;2023-07-13T00:15:25;97304.09;;;20.13;100.00
55914;BME280;58179;48.776;9.124;2023-07-13T00:17:53;97306.78;;;20.04;100.00
55914;BME280;58179;48.776;9.124;2023-07-13T00:20:20;97303.91;;;20.00;100.00
55914;BME280;58179;48.776;9.124;2023-07-13T00:22:48;97301.06;;;19.97;100.00
55914;BME280;58179;48.776;9.124;2023-07-13T00:25:15;97299.31;;;19.92;100.00
55914;BME280;58179;48.776;9.124;2023-07-13T00:27:42;97302.63;;;19.89;100.00
55914;BME280;58179;48.776;9.124;2023-07-13T00:30:09;97306.72;;;19.87;100.00
55914;BME280;58179;48.776;9.124;2023-07-13T00:32:38;97305.16;;;19.86;100.00
55914;BME280;58179;48.776;9.124;2023-07-13T00:35:04;97295.66;;;19.80;100.00
55914;BME280;58179;48.776;9.124;2023-07-13T00:37:31;97291.38;;;19.79;100.00
55914;BME280;58179;48.776;9.124;2023-07-13T00:39:57;97300.09;;;19.76;100.00
55914;BME280;58179;48.776;9.124;2023-07-13T00:42:23;97289.94;;;19.73;100.00
55914;BME280;58179;48.776;9.124;2023-07-13T00:45:07;97305.28;;;19.72;100.00
55914;BME280;58179;48.776;9.124;2023-07-13T00:47:54;97303.38;;;19.73;100.00
55914;BME280;58179;48.776;9.124;2023-07-13T00:50:21;97309.53;;;19.73;100.00
55914;BME280;58179;48.776;9.124;2023-07-13T00:52:50;97303.53;;;19.67;100.00
55914;BME280;58179;48.776;9.124;2023-07-13T00:55:18;97296.88;;;19.65;100.00
55914;BME280;58179;48.776;9.124;2023-07-13T00:57:45;97301.94;;;19.66;100.00
55914;BME280;58179;48.776;9.124;2023-07-13T01:00:12;97308.59;;;19.69;100.00
55914;BME280;58179;48.776;9.124;2023-07-13T01:02:40;97310.78;;;19.67;100.00
55914;BME280;58179;48.776;9.124;2023-07-13T01:05:11;97314.28;;;19.67;100.00
55914;BME280;58179;48.776;9.124;2023-07-13T01:07:38;97318.84;;;19.67;100.00
55914;BME280;58179;48.776;9.124;2023-07-13T01:10:05;97321.84;;;19.65;100.00
55914;BME280;58179;48.776;9.124;2023-07-13T01:12:31;97316.63;;;19.60;100.00
55914;BME280;58179;48.776;9.124;2023-07-13T01:14:58;97316.75;;;19.55;100.00
55914;BME280;58179;48.776;9.124;2023-07-13T01:17:26;97326.03;;;19.49;100.00
55914;BME280;58179;48.776;9.124;2023-07-13T01:19:53;97315.00;;;19.51;100.00
55914;BME280;58179;48.776;9.124;2023-07-13T01:22:21;97320.19;;;19.47;100.00
55914;BME280;58179;48.776;9.124;2023-07-13T01:24:53;97322.81;;;19.39;100.00
55914;BME280;58179;48.776;9.124;2023-07-13T01:27:22;97329.91;;;19.34;100.00
55914;BME280;58179;48.776;9.124;2023-07-13T01:29:52;97334.59;;;19.29;100.00
55914;BME280;58179;48.776;9.124;2023-07-13T01:32:22;97326.50;;;19.20;100.00
55914;BME280;58179;48.776;9.124;2023-07-13T01:34:50;97322.38;;;19.14;100.00
55914;BME280;58179;48.776;9.124;2023-07-13T01:37:17;97326.09;;;19.05;100.00
55914;BME280;58179;48.776;9.124;2023-07-13T01:39:44;97327.94;;;18.95;100.00
55914;BME280;58179;48.776;9.124;2023-07-13T01:42:10;97337.50;;;18.88;100.00
55914;BME280;58179;48.776;9.124;2023-07-13T01:44:36;97335.56;;;18.80;100.00
55914;BME280;58179;48.776;9.124;2023-07-13T01:47:03;97333.50;;;18.77;100.00
55914;BME280;58179;48.776;9.124;2023-07-13T01:49:30;97338.50;;;18.70;100.00
55914;BME280;58179;48.776;9.124;2023-07-13T01:51:56;97335.75;;;18.61;100.00
55914;BME280;58179;48.776;9.124;2023-07-13T01:54:22;97329.19;;;18.53;100.00
55914;BME280;58179;48.776;9.124;2023-07-13T01:56:50;97326.81;;;18.52;100.00
55914;BME280;58179;48.776;9.124;2023-07-13T01:59:16;97326.94;;;18.47;100.00
55914;BME280;58179;48.776;9.124;2023-07-13T02:01:42;97328.63;;;18.43;100.00
55914;BME280;58179;48.776;9.124;2023-07-13T02:04:08;97332.50;;;18.37;100.00
55914;BME280;58179;48.776;9.124;2023-07-13T02:06:34;97332.94;;;18.30;100.00
55914;BME280;58179;48.776;9.124;2023-07-13T02:09:01;97336.81;;;18.24;100.00
55914;BME280;58179;48.776;9.124;2023-07-13T02:11:27;97333.63;;;18.22;100.00
55914;BME280;58179;48.776;9.124;2023-07-13T02:14:00;97341.00;;;18.16;100.00
55914;BME280;58179;48.776;9.124;2023-07-13T02:16:27;97336.22;;;18.13;100.00
55914;BME280;58179;48.776;9.124;2023-07-13T02:18:54;97345.47;;;18.07;100.00
55914;BME280;58179;48.776;9.124;2023-07-13T02:21:21;97342.91;;;18.02;100.00
55914;BME280;58179;48.776;9.124;2023-07-13T02:23:47;97341.63;;;18.00;100.00
55914;BME280;58179;48.776;9.124;2023-07-13T02:26:14;97343.63;;;17.94;100.00
55914;BME280;58179;48.776;9.124;2023-07-13T02:28:40;97337.25;;;17.90;100.00
55914;BME280;58179;48.776;9.124;2023-07-13T02:31:09;97345.91;;;17.87;100.00
55914;BME280;58179;48.776;9.124;2023-07-13T02:33:36;97340.63;;;17.82;100.00
55914;BME280;58179;48.776;9.124;2023-07-13T02:36:02;97346.59;;;17.79;100.00
55914;BME280;58179;48.776;9.124;2023-07-13T02:38:29;97341.03;;;17.75;100.00
55914;BME280;58179;48.776;9.124;2023-07-13T02:40:55;97345.69;;;17.70;100.00
55914;BME280;58179;48.776;9.124;2023-07-13T02:43:22;97358.09;;;17.66;100.00
55914;BME280;58179;48.776;9.124;2023-07-13T02:45:48;97354.31;;;17.67;100.00
55914;BME280;58179;48.776;9.124;2023-07-13T02:48:16;97357.31;;;17.65;100.00
55914;BME280;58179;48.776;9.124;2023-07-13T02:50:43;97355.72;;;17.64;100.00
55914;BME280;58179;48.776;9.124;2023-07-13T02:53:10;97357.88;;;17.62;100.00
55914;BME280;58179;48.776;9.124;2023-07-13T02:55:36;97353.09;;;17.59;100.00
55914;BME280;58179;48.776;9.124;2023-07-13T02:58:02;97359.34;;;17.55;100.00
55914;BME280;58179;48.776;9.124;2023-07-13T03:00:29;97362.59;;;17.52;100.00
55914;BME280;58179;48.776;9.124;2023-07-13T03:02:55;97364.28;;;17.48;100.00
55914;BME280;58179;48.776;9.124;2023-07-13T03:05:24;97355.28;;;17.44;100.00
55914;BME280;58179;48.776;9.124;2023-07-13T03:07:51;97364.97;;;17.39;100.00
55914;BME280;58179;48.776;9.124;2023-07-13T03:10:17;97374.38;;;17.37;100.00
55914;BME280;58179;48.776;9.124;2023-07-13T03:12:43;97372.00;;;17.35;100.00
55914;BME280;58179;48.776;9.124;2023-07-13T03:15:10;97380.53;;;17.37;100.00
55914;BME280;58179;48.776;9.124;2023-07-13T03:17:36;97382.22;;;17.33;100.00
55914;BME280;58179;48.776;9.124;2023-07-13T03:20:02;97383.19;;;17.37;100.00
55914;BME280;58179;48.776;9.124;2023-07-13T03:22:30;97380.44;;;17.42;100.00
55914;BME280;58179;48.776;9.124;2023-07-13T03:24:57;97376.38;;;17.45;100.00
55914;BME280;58179;48.776;9.124;2023-07-13T03:27:23;97383.59;;;17.45;100.00
55914;BME280;58179;48.776;9.124;2023-07-13T03:29:49;97392.44;;;17.45;100.00
55914;BME280;58179;48.776;9.124;2023-07-13T03:32:15;97396.91;;;17.50;100.00
55914;BME280;58179;48.776;9.124;2023-07-13T03:34:42;97398.97;;;17.53;100.00
55914;BME280;58179;48.776;9.124;2023-07-13T03:37:08;97400.28;;;17.55;100.00
55914;BME280;58179;48.776;9.124;2023-07-13T03:39:35;97402.66;;;17.57;100.00
55914;BME280;58179;48.776;9.124;2023-07-13T03:42:02;97400.97;;;17.61;100.00
55914;BME280;58179;48.776;9.124;2023-07-13T03:44:28;97399.63;;;17.63;100.00
55914;BME280;58179;48.776;9.124;2023-07-13T03:46:54;97406.88;;;17.63;100.00
55914;BME280;58179;48.776;9.124;2023-07-13T03:49:20;97405.78;;;17.64;100.00
55914;BME280;58179;48.776;9.124;2023-07-13T03:51:47;97411.13;;;17.64;100.00
55914;BME280;58179;48.776;9.124;2023-07-13T03:54:13;97410.63;;;17.62;100.00
55914;BME280;58179;48.776;9.124;2023-07-13T03:56:40;97402.31;;;17.63;100.00
55914;BME280;58179;48.776;9.124;2023-07-13T03:59:07;97404.69;;;17.65;100.00
55914;BME280;58179;48.776;9.124;2023-07-13T04:01:33;97417.28;;;17.64;100.00
55914;BME280;58179;48.776;9.124;2023-07-13T04:03:59;97411.66;;;17.66;100.00
55914;BME280;58179;48.776;9.124;2023-07-13T04:06:28;97417.28;;;17.64;100.00
55914;BME280;58179;48.776;9.124;2023-07-13T04:08:57;97422.63;;;17.64;100.00
55914;BME280;58179;48.776;9.124;2023-07-13T04:11:26;97424.53;;;17.64;100.00
55914;BME280;58179;48.776;9.124;2023-07-13T04:13:55;97423.16;;;17.66;100.00
55914;BME280;58179;48.776;9.124;2023-07-13T04:16:22;97424.13;;;17.70;100.00
55914;BME280;58179;48.776;9.124;2023-07-13T04:18:48;97421.75;;;17.69;100.00
55914;BME280;58179;48.776;9.124;2023-07-13T04:21:16;97424.13;;;17.70;100.00
55914;BME280;58179;48.776;9.124;2023-07-13T04:23:42;97428.91;;;17.73;100.00
55914;BME280;58179;48.776;9.124;2023-07-13T04:26:09;97420.88;;;17.73;100.00
55914;BME280;58179;48.776;9.124;2023-07-13T04:28:35;97425.44;;;17.73;100.00
55914;BME280;58179;48.776;9.124;2023-07-13T04:31:03;97431.59;;;17.73;100.00
55914;BME280;58179;48.776;9.124;2023-07-13T04:33:29;97423.03;;;17.71;100.00
55914;BME280;58179;48.776;9.124;2023-07-13T04:35:56;97427.09;;;17.69;100.00
55914;BME280;58179;48.776;9.124;2023-07-13T04:38:23;97428.78;;;17.65;100.00
55914;BME280;58179;48.776;9.124;2023-07-13T04:40:51;97426.69;;;17.62;100.00
55914;BME280;58179;48.776;9.124;2023-07-13T04:43:17;97431.50;;;17.60;100.00
55914;BME280;58179;48.776;9.124;2023-07-13T04:45:43;97434.28;;;17.55;100.00
55914;BME280;58179;48.776;9.124;2023-07-13T04:48:11;97440.72;;;17.54;100.00
55914;BME280;58179;48.776;9.124;2023-07-13T04:50:38;97439.44;;;17.51;100.00
55914;BME280;58179;48.776;9.124;2023-07-13T04:53:04;97444.88;;;17.46;100.00
55914;BME280;58179;48.776;9.124;2023-07-13T04:55:31;97440.13;;;17.43;100.00
55914;BME280;58179;48.776;9.124;2023-07-13T04:57:58;97441.50;;;17.40;100.00
55914;BME280;58179;48.776;9.124;2023-07-13T05:00:28;97446.34;;;17.38;100.00
55914;BME280;58179;48.776;9.124;2023-07-13T05:02:56;97441.59;;;17.35;100.00
55914;BME280;58179;48.776;9.124;2023-07-13T05:05:25;97444.53;;;17.34;100.00
55914;BME280;58179;48.776;9.124;2023-07-13T05:07:51;97449.59;;;17.35;100.00
55914;BME280;58179;48.776;9.124;2023-07-13T05:10:18;97444.75;;;17.37;100.00
55914;BME280;58179;48.776;9.124;2023-07-13T05:12:44;97448.94;;;17.44;100.00
55914;BME280;58179;48.776;9.124;2023-07-13T05:15:11;97455.28;;;17.48;100.00
55914;BME280;58179;48.776;9.124;2023-07-13T05:17:37;97448.25;;;17.52;100.00
55914;BME280;58179;48.776;9.124;2023-07-13T05:20:05;97450.25;;;17.60;100.00
55914;BME280;58179;48.776;9.124;2023-07-13T05:22:33;97451.47;;;17.67;100.00
55914;BME280;58179;48.776;9.124;2023-07-13T05:25:01;97451.88;;;17.74;100.00
55914;BME280;58179;48.776;9.124;2023-07-13T05:27:27;97455.78;;;17.82;100.00
55914;BME280;58179;48.776;9.124;2023-07-13T05:29:53;97455.41;;;17.89;100.00
55914;BME280;58179;48.776;9.124;2023-07-13T05:32:19;97448.56;;;17.96;100.00
55914;BME280;58179;48.776;9.124;2023-07-13T05:34:45;97445.78;;;18.01;100.00
55914;BME280;58179;48.776;9.124;2023-07-13T05:37:12;97449.44;;;18.05;100.00
55914;BME280;58179;48.776;9.124;2023-07-13T05:39:39;97453.94;;;18.10;100.00
55914;BME280;58179;48.776;9.124;2023-07-13T05:42:06;97453.13;;;18.09;100.00
55914;BME280;58179;48.776;9.124;2023-07-13T05:44:33;97457.88;;;18.12;100.00
55914;BME280;58179;48.776;9.124;2023-07-13T05:46:59;97459.19;;;18.15;100.00
55914;BME280;58179;48.776;9.124;2023-07-13T05:49:25;97459.47;;;18.13;100.00
55914;BME280;58179;48.776;9.124;2023-07-13T05:51:51;97463.44;;;18.16;100.00
55914;BME280;58179;48.776;9.124;2023-07-13T05:54:18;97462.53;;;18.21;100.00
55914;BME280;58179;48.776;9.124;2023-07-13T05:56:45;97462.16;;;18.27;100.00
55914;BME280;58179;48.776;9.124;2023-07-13T05:59:11;97455.41;;;18.30;100.00
55914;BME280;58179;48.776;9.124;2023-07-13T06:01:38;97470.91;;;18.33;100.00
55914;BME280;58179;48.776;9.124;2023-07-13T06:04:04;97467.59;;;18.36;100.00
55914;BME280;58179;48.776;9.124;2023-07-13T06:06:30;97471.59;;;18.38;100.00
55914;BME280;58179;48.776;9.124;2023-07-13T06:08:56;97479.50;;;18.43;100.00
55914;BME280;58179;48.776;9.124;2023-07-13T06:11:26;97476.75;;;18.48;100.00
55914;BME280;58179;48.776;9.124;2023-07-13T06:13:54;97476.75;;;18.48;100.00
55914;BME280;58179;48.776;9.124;2023-07-13T06:16:21;97478.13;;;18.46;100.00
55914;BME280;58179;48.776;9.124;2023-07-13T06:18:47;97479.34;;;18.40;100.00
55914;BME280;58179;48.776;9.124;2023-07-13T06:21:15;97482.69;;;18.45;100.00
55914;BME280;58179;48.776;9.124;2023-07-13T06:23:42;97487.75;;;18.47;100.00
55914;BME280;58179;48.776;9.124;2023-07-13T06:26:09;97488.63;;;18.42;100.00
55914;BME280;58179;48.776;9.124;2023-07-13T06:28:36;97489.44;;;18.43;100.00
55914;BME280;58179;48.776;9.124;2023-07-13T06:31:06;97498.09;;;18.40;100.00
55914;BME280;58179;48.776;9.124;2023-07-13T06:33:33;97494.72;;;18.48;100.00
55914;BME280;58179;48.776;9.124;2023-07-13T06:35:59;97507.91;;;18.58;100.00
55914;BME280;58179;48.776;9.124;2023-07-13T06:38:25;97503.66;;;18.57;100.00
55914;BME280;58179;48.776;9.124;2023-07-13T06:40:52;97506.34;;;18.57;100.00
55914;BME280;58179;48.776;9.124;2023-07-13T06:43:18;97505.53;;;18.70;100.00
55914;BME280;58179;48.776;9.124;2023-07-13T06:45:47;97514.16;;;18.81;100.00
55914;BME280;58179;48.776;9.124;2023-07-13T06:48:17;97512.84;;;18.92;100.00
55914;BME280;58179;48.776;9.124;2023-07-13T06:50:44;97515.28;;;19.02;100.00
55914;BME280;58179;48.776;9.124;2023-07-13T06:53:12;97519.28;;;19.05;100.00
55914;BME280;58179;48.776;9.124;2023-07-13T06:55:38;97511.91;;;19.10;100.00
55914;BME280;58179;48.776;9.124;2023-07-13T06:58:05;97516.56;;;19.18;100.00
55914;BME280;58179;48.776;9.124;2023-07-13T07:00:32;97518.34;;;19.23;100.00
55914;BME280;58179;48.776;9.124;2023-07-13T07:02:58;97514.72;;;19.27;100.00
55914;BME280;58179;48.776;9.124;2023-07-13T07:05:25;97512.56;;;19.29;100.00
55914;BME280;58179;48.776;9.124;2023-07-13T07:07:53;97520.47;;;19.34;100.00
55914;BME280;58179;48.776;9.124;2023-07-13T07:10:20;97520.69;;;19.38;100.00
55914;BME280;58179;48.776;9.124;2023-07-13T07:12:46;97520.78;;;19.33;100.00
55914;BME280;58179;48.776;9.124;2023-07-13T07:15:13;97524.75;;;19.36;100.00
55914;BME280;58179;48.776;9.124;2023-07-13T07:17:39;97516.53;;;19.32;100.00
55914;BME280;58179;48.776;9.124;2023-07-13T07:20:06;97524.63;;;19.41;100.00
55914;BME280;58179;48.776;9.124;2023-07-13T07:22:34;97521.84;;;19.46;100.00
55914;BME280;58179;48.776;9.124;2023-07-13T07:25:00;97520.25;;;19.45;100.00
55914;BME280;58179;48.776;9.124;2023-07-13T07:27:26;97522.03;;;19.49;100.00
55914;BME280;58179;48.776;9.124;2023-07-13T07:29:53;97515.34;;;19.60;100.00
55914;BME280;58179;48.776;9.124;2023-07-13T07:32:20;97522.03;;;19.49;100.00
55914;BME280;58179;48.776;9.124;2023-07-13T07:34:46;97523.63;;;19.50;100.00
55914;BME280;58179;48.776;9.124;2023-07-13T07:37:14;97518.56;;;19.49;100.00
55914;BME280;58179;48.776;9.124;2023-07-13T07:39:43;97512.88;;;19.50;100.00
55914;BME280;58179;48.776;9.124;2023-07-13T07:42:10;97509.28;;;19.55;100.00
55914;BME280;58179;48.776;9.124;2023-07-13T07:44:39;97510.75;;;19.61;100.00
55914;BME280;58179;48.776;9.124;2023-07-13T07:47:06;97516.78;;;19.66;100.00
55914;BME280;58179;48.776;9.124;2023-07-13T07:49:32;97517.44;;;19.72;100.00
55914;BME280;58179;48.776;9.124;2023-07-13T07:51:58;97524.63;;;19.77;100.00
55914;BME280;58179;48.776;9.124;2023-07-13T07:54:24;97523.69;;;19.81;100.00
55914;BME280;58179;48.776;9.124;2023-07-13T07:56:52;97520.06;;;19.86;100.00
55914;BME280;58179;48.776;9.124;2023-07-13T07:59:19;97512.00;;;19.86;100.00
55914;BME280;58179;48.776;9.124;2023-07-13T08:01:45;97524.03;;;19.88;100.00
55914;BME280;58179;48.776;9.124;2023-07-13T08:04:13;97531.34;;;19.96;100.00
55914;BME280;58179;48.776;9.124;2023-07-13T08:06:40;97526.94;;;20.00;100.00
55914;BME280;58179;48.776;9.124;2023-07-13T08:09:06;97534.59;;;20.16;100.00
55914;BME280;58179;48.776;9.124;2023-07-13T08:11:34;97527.97;;;20.13;100.00
55914;BME280;58179;48.776;9.124;2023-07-13T08:14:01;97534.13;;;20.14;100.00
55914;BME280;58179;48.776;9.124;2023-07-13T08:16:27;97526.44;;;20.21;100.00
55914;BME280;58179;48.776;9.124;2023-07-13T08:18:54;97527.06;;;20.26;100.00
55914;BME280;58179;48.776;9.124;2023-07-13T08:21:20;97526.50;;;20.38;100.00
55914;BME280;58179;48.776;9.124;2023-07-13T08:23:47;97533.50;;;20.47;100.00
55914;BME280;58179;48.776;9.124;2023-07-13T08:26:13;97528.81;;;20.62;100.00
55914;BME280;58179;48.776;9.124;2023-07-13T08:28:40;97538.78;;;20.61;100.00
55914;BME280;58179;48.776;9.124;2023-07-13T08:31:08;97526.16;;;20.70;100.00
55914;BME280;58179;48.776;9.124;2023-07-13T08:33:35;97521.28;;;20.81;100.00
55914;BME280;58179;48.776;9.124;2023-07-13T08:36:02;97526.19;;;20.88;100.00
55914;BME280;58179;48.776;9.124;2023-07-13T08:38:28;97521.31;;;20.90;100.00
55914;BME280;58179;48.776;9.124;2023-07-13T08:40:56;97531.44;;;21.01;100.00
55914;BME280;58179;48.776;9.124;2023-07-13T08:43:26;97533.97;;;20.89;100.00
55914;BME280;58179;48.776;9.124;2023-07-13T08:45:57;97533.16;;;20.89;100.00
55914;BME280;58179;48.776;9.124;2023-07-13T08:48:28;97531.09;;;20.94;100.00
55914;BME280;58179;48.776;9.124;2023-07-13T08:51:00;97541.91;;;21.03;100.00
55914;BME280;58179;48.776;9.124;2023-07-13T08:53:31;97540.81;;;21.21;100.00
55914;BME280;58179;48.776;9.124;2023-07-13T08:56:01;97544.00;;;21.32;100.00
55914;BME280;58179;48.776;9.124;2023-07-13T08:58:27;97537.03;;;21.48;100.00
55914;BME280;58179;48.776;9.124;2023-07-13T09:01:02;97533.38;;;21.52;100.00
55914;BME280;58179;48.776;9.124;2023-07-13T09:03:40;97543.06;;;21.53;100.00
55914;BME280;58179;48.776;9.124;2023-07-13T09:06:11;97527.19;;;21.43;100.00
55914;BME280;58179;48.776;9.124;2023-07-13T09:08:48;97535.13;;;21.48;100.00
55914;BME280;58179;48.776;9.124;2023-07-13T09:11:32;97542.72;;;21.63;100.00
55914;BME280;58179;48.776;9.124;2023-07-13T09:14:06;97540.97;;;21.85;100.00
55914;BME280;58179;48.776;9.124;2023-07-13T09:16:40;97534.59;;;22.07;100.00
55914;BME280;58179;48.776;9.124;2023-07-13T09:19:13;97542.34;;;22.17;100.00
55914;BME280;58179;48.776;9.124;2023-07-13T09:21:43;97551.84;;;22.23;100.00
55914;BME280;58179;48.776;9.124;2023-07-13T09:24:33;97557.28;;;22.06;100.00
55914;BME280;58179;48.776;9.124;2023-07-13T09:27:03;97548.56;;;22.09;100.00
55914;BME280;58179;48.776;9.124;2023-07-13T09:29:35;97548.06;;;21.89;100.00
55914;BME280;58179;48.776;9.124;2023-07-13T09:32:06;97555.03;;;21.90;100.00
55914;BME280;58179;48.776;9.124;2023-07-13T09:34:36;97544.44;;;22.03;100.00
55914;BME280;58179;48.776;9.124;2023-07-13T09:37:02;97541.69;;;22.20;100.00
55914;BME280;58179;48.776;9.124;2023-07-13T09:39:33;97542.06;;;22.48;100.00
55914;BME280;58179;48.776;9.124;2023-07-13T09:42:06;97538.84;;;22.63;100.00
55914;BME280;58179;48.776;9.124;2023-07-13T09:44:35;97539.88;;;22.79;100.00
55914;BME280;58179;48.776;9.124;2023-07-13T09:47:02;97531.25;;;22.86;100.00
55914;BME280;58179;48.776;9.124;2023-07-13T09:49:34;97537.31;;;22.83;100.00
55914;BME280;58179;48.776;9.124;2023-07-13T09:52:05;97543.56;;;22.74;100.00
55914;BME280;58179;48.776;9.124;2023-07-13T09:54:33;97538.06;;;22.54;100.00
55914;BME280;58179;48.776;9.124;2023-07-13T09:57:01;97540.72;;;22.62;100.00
55914;BME280;58179;48.776;9.124;2023-07-13T09:59:32;97538.75;;;22.80;100.00
55914;BME280;58179;48.776;9.124;2023-07-13T10:01:58;97538.97;;;22.96;100.00
55914;BME280;58179;48.776;9.124;2023-07-13T10:04:30;97521.97;;;22.95;100.00
55914;BME280;58179;48.776;9.124;2023-07-13T10:07:07;97534.97;;;23.02;100.00
55914;BME280;58179;48.776;9.124;2023-07-13T10:09:34;97535.69;;;23.11;100.00
55914;BME280;58179;48.776;9.124;2023-07-13T10:12:00;97534.19;;;23.22;100.00
55914;BME280;58179;48.776;9.124;2023-07-13T10:14:27;97529.19;;;23.33;100.00
55914;BME280;58179;48.776;9.124;2023-07-13T10:16:58;97535.63;;;23.40;100.00
55914;BME280;58179;48.776;9.124;2023-07-13T10:19:27;97533.72;;;23.41;100.00
55914;BME280;58179;48.776;9.124;2023-07-13T10:21:59;97538.59;;;23.47;100.00
55914;BME280;58179;48.776;9.124;2023-07-13T10:24:29;97533.19;;;23.47;100.00
55914;BME280;58179;48.776;9.124;2023-07-13T10:27:00;97530.81;;;23.46;100.00
55914;BME280;58179;48.776;9.124;2023-07-13T10:29:28;97526.09;;;23.43;100.00
55914;BME280;58179;48.776;9.124;2023-07-13T10:31:55;97527.66;;;23.44;100.00
55914;BME280;58179;48.776;9.124;2023-07-13T10:34:23;97529.72;;;23.68;92.86
55914;BME280;58179;48.776;9.124;2023-07-13T10:36:51;97535.38;;;23.54;100.00
55914;BME280;58179;48.776;9.124;2023-07-13T10:39:20;97530.81;;;23.46;100.00
55914;BME280;58179;48.776;9.124;2023-07-13T10:41:50;97536.16;;;23.34;100.00
55914;BME280;58179;48.776;9.124;2023-07-13T10:44:21;97533.41;;;23.22;100.00
55914;BME280;58179;48.776;9.124;2023-07-13T10:46:53;97538.03;;;23.21;100.00
55914;BME280;58179;48.776;9.124;2023-07-13T10:49:24;97533.84;;;23.24;100.00
55914;BME280;58179;48.776;9.124;2023-07-13T10:51:52;97535.13;;;23.26;100.00
55914;BME280;58179;48.776;9.124;2023-07-13T10:54:21;97536.97;;;23.34;100.00
55914;BME280;58179;48.776;9.124;2023-07-13T10:57:17;97530.28;;;23.32;100.00
55914;BME280;58179;48.776;9.124;2023-07-13T10:59:47;97528.66;;;23.39;100.00
55914;BME280;58179;48.776;9.124;2023-07-13T11:02:25;97520.34;;;23.65;100.00
55914;BME280;58179;48.776;9.124;2023-07-13T11:04:54;97512.59;;;23.76;100.00
55914;BME280;58179;48.776;9.124;2023-07-13T11:07:23;97517.25;;;23.75;100.00
55914;BME280;58179;48.776;9.124;2023-07-13T11:09:51;97519.50;;;23.85;87.05
55914;BME280;58179;48.776;9.124;2023-07-13T11:12:50;97522.47;;;23.60;100.00
55914;BME280;58179;48.776;9.124;2023-07-13T11:15:29;97521.59;;;23.47;100.00
55914;BME280;58179;48.776;9.124;2023-07-13T11:17:56;97510.41;;;23.36;100.00
55914;BME280;58179;48.776;9.124;2023-07-13T11:20:37;97502.59;;;23.23;89.00
55914;BME280;58179;48.776;9.124;2023-07-13T11:23:17;97510.94;;;23.30;100.00
55914;BME280;58179;48.776;9.124;2023-07-13T11:25:44;97503.34;;;23.44;100.00
55914;BME280;58179;48.776;9.124;2023-07-13T11:28:23;97497.81;;;23.61;100.00
55914;BME280;58179;48.776;9.124;2023-07-13T11:30:59;97500.72;;;23.89;100.00
55914;BME280;58179;48.776;9.124;2023-07-13T11:33:31;97495.63;;;24.20;100.00
55914;BME280;58179;48.776;9.124;2023-07-13T11:36:15;97506.91;;;24.59;100.00
55914;BME280;58179;48.776;9.124;2023-07-13T11:38:43;97505.00;;;24.72;100.00
55914;BME280;58179;48.776;9.124;2023-07-13T11:41:15;97502.50;;;24.91;100.00
55914;BME280;58179;48.776;9.124;2023-07-13T11:43:44;97500.13;;;25.01;100.00
55914;BME280;58179;48.776;9.124;2023-07-13T11:46:15;97489.75;;;24.91;100.00
55914;BME280;58179;48.776;9.124;2023-07-13T11:48:42;97490.97;;;24.82;100.00
55914;BME280;58179;48.776;9.124;2023-07-13T11:51:14;97490.91;;;24.54;100.00
55914;BME280;58179;48.776;9.124;2023-07-13T11:53:46;97492.56;;;24.22;99.78
55914;BME280;58179;48.776;9.124;2023-07-13T11:56:13;97495.72;;;24.24;100.00
55914;BME280;58179;48.776;9.124;2023-07-13T11:58:40;97497.69;;;24.36;100.00
55914;BME280;58179;48.776;9.124;2023-07-13T12:01:17;97503.75;;;24.57;100.00
55914;BME280;58179;48.776;9.124;2023-07-13T12:03:45;97502.97;;;24.93;94.11
55914;BME280;58179;48.776;9.124;2023-07-13T12:06:26;97493.19;;;25.16;100.00
55914;BME280;58179;48.776;9.124;2023-07-13T12:08:56;97501.47;;;25.35;100.00
55914;BME280;58179;48.776;9.124;2023-07-13T12:11:24;97493.41;;;25.51;100.00
55914;BME280;58179;48.776;9.124;2023-07-13T12:13:50;97487.56;;;25.77;100.00
55914;BME280;58179;48.776;9.124;2023-07-13T12:16:26;97490.56;;;26.03;100.00
55914;BME280;58179;48.776;9.124;2023-07-13T12:18:53;97503.00;;;26.04;100.00
55914;BME280;58179;48.776;9.124;2023-07-13T12:21:24;97496.53;;;25.93;100.00
55914;BME280;58179;48.776;9.124;2023-07-13T12:23:53;97496.66;;;25.69;80.04
55914;BME280;58179;48.776;9.124;2023-07-13T12:26:22;97488.75;;;25.64;76.94
55914;BME280;58179;48.776;9.124;2023-07-13T12:28:51;97498.56;;;25.68;94.58
55914;BME280;58179;48.776;9.124;2023-07-13T12:31:29;97494.91;;;25.76;100.00
55914;BME280;58179;48.776;9.124;2023-07-13T12:34:01;97498.09;;;26.10;100.00
55914;BME280;58179;48.776;9.124;2023-07-13T12:36:31;97500.56;;;26.15;95.54
55914;BME280;58179;48.776;9.124;2023-07-13T12:39:03;97493.16;;;26.28;100.00
55914;BME280;58179;48.776;9.124;2023-07-13T12:41:30;97486.47;;;26.56;85.36
55914;BME280;58179;48.776;9.124;2023-07-13T12:43:57;97485.06;;;26.63;91.60
55914;BME280;58179;48.776;9.124;2023-07-13T12:46:27;97490.84;;;27.12;64.73
55914;BME280;58179;48.776;9.124;2023-07-13T12:48:56;97488.38;;;27.07;70.41
55914;BME280;58179;48.776;9.124;2023-07-13T12:51:25;97498.75;;;27.01;64.26
55914;BME280;58179;48.776;9.124;2023-07-13T12:53:57;97492.31;;;26.90;76.61
55914;BME280;58179;48.776;9.124;2023-07-13T12:56:27;97494.16;;;26.70;71.60